Time;durP1;ratioP1;P1;durP2;ratioP2;P2;SDS_P1;SDS_P2;PMS_P1;PMS_P2;Temp;Humidity;BMP_temperature;BMP_pressure;BME280_temperature;BME280_humidity;BME280_pressure;Samples;Min_cycle;Max_cycle;Signal;HPM_P1;HPM_P2
2023/02/10 00:01:24;;;;;;;51.10;33.40;;;;;;;-0.62;57.29;101979.89;111044;1255;21974;-76
2023/02/10 00:03:58;;;;;;;49.70;32.90;;;;;;;-0.66;57.35;101973.93;111032;1255;21948;-76
2023/02/10 00:06:28;;;;;;;48.10;32.90;;;;;;;-0.69;57.41;101972.29;111257;1254;23026;-75
2023/02/10 00:09:02;;;;;;;49.00;31.50;;;;;;;-0.72;57.46;101976.30;111223;1255;23789;-76
2023/02/10 00:14:21;;;;;;;41.50;30.70;;;;;;;-0.77;57.59;101974.74;110949;1260;21988;-74
2023/02/10 00:16:55;;;;;;;45.00;32.40;;;;;;;-0.77;57.59;101971.17;110603;1260;21959;-75
2023/02/10 00:19:28;;;;;;;42.50;31.50;;;;;;;-0.76;57.58;101971.73;110237;1266;21975;-75
2023/02/10 00:21:58;;;;;;;41.30;29.90;;;;;;;-0.73;57.70;101974.88;109849;1266;22819;-76
2023/02/10 00:24:28;;;;;;;45.70;30.70;;;;;;;-0.71;57.76;101976.14;110201;1266;22082;-75
2023/02/10 00:27:00;;;;;;;44.00;31.50;;;;;;;-0.71;57.80;101974.43;110182;1266;21974;-76
2023/02/10 00:29:32;;;;;;;45.70;30.00;;;;;;;-0.69;57.74;101972.83;110169;1266;21960;-75
2023/02/10 00:32:03;;;;;;;38.50;28.20;;;;;;;-0.68;57.67;101967.69;110378;1260;22102;-75
2023/02/10 00:34:35;;;;;;;35.00;27.20;;;;;;;-0.68;57.67;101969.42;110733;1260;21976;-76
2023/02/10 00:37:04;;;;;;;37.70;30.30;;;;;;;-0.68;57.57;101970.27;110806;1254;23052;-76
2023/02/10 00:39:37;;;;;;;40.60;28.80;;;;;;;-0.69;57.47;101968.54;111226;1255;22835;-77
2023/02/10 00:42:12;;;;;;;36.70;27.70;;;;;;;-0.71;57.49;101967.96;110920;1255;23591;-76
2023/02/10 00:44:42;;;;;;;40.00;29.30;;;;;;;-0.72;57.47;101966.54;111114;1255;21963;-76
2023/02/10 00:47:12;;;;;;;39.00;29.60;;;;;;;-0.73;57.41;101965.83;111282;1255;24311;-74
2023/02/10 00:49:42;;;;;;;44.60;30.30;;;;;;;-0.76;57.34;101970.88;111260;1255;21970;-75
2023/02/10 00:52:12;;;;;;;40.70;30.90;;;;;;;-0.79;57.20;101973.31;111013;1254;22233;-76
2023/02/10 00:54:42;;;;;;;42.80;30.90;;;;;;;-0.83;57.24;101977.30;111162;1255;23612;-76
2023/02/10 00:57:15;;;;;;;37.40;28.80;;;;;;;-0.86;57.24;101978.05;111203;1255;21966;-76
2023/02/10 00:59:44;;;;;;;38.50;30.30;;;;;;;-0.86;57.37;101974.09;111180;1254;22397;-76
2023/02/10 01:02:13;;;;;;;36.80;29.10;;;;;;;-0.87;57.37;101970.66;111148;1255;22048;-75
2023/02/10 01:04:43;;;;;;;41.40;29.90;;;;;;;-0.85;57.46;101965.75;110946;1255;23703;-75
2023/02/10 01:07:12;;;;;;;39.80;29.80;;;;;;;-0.83;57.50;101960.71;111099;1254;21988;-75
2023/02/10 01:09:45;;;;;;;40.30;29.80;;;;;;;-0.82;57.53;101954.08;110926;1255;22982;-75
2023/02/10 01:12:14;;;;;;;43.90;30.30;;;;;;;-0.86;57.57;101946.43;111127;1251;23701;-76
2023/02/10 01:14:50;;;;;;;40.40;30.70;;;;;;;-0.85;57.52;101949.70;110861;1255;21962;-77
2023/02/10 01:17:41;;;;;;;40.20;30.00;;;;;;;-0.90;57.45;101947.31;111090;1255;21934;-78
2023/02/10 01:20:13;;;;;;;39.80;30.90;;;;;;;-0.93;57.52;101945.83;111200;1256;21966;-75
2023/02/10 01:22:43;;;;;;;45.90;33.00;;;;;;;-0.97;57.51;101943.30;110432;1262;21972;-75
2023/02/10 01:25:13;;;;;;;43.60;32.40;;;;;;;-0.99;57.65;101941.17;110393;1262;22071;-75
2023/02/10 01:27:42;;;;;;;40.90;31.20;;;;;;;-1.03;57.60;101938.33;110424;1262;23002;-74
2023/02/10 01:30:12;;;;;;;37.80;30.10;;;;;;;-1.06;57.67;101940.77;110489;1262;21993;-74
2023/02/10 01:32:42;;;;;;;42.90;30.30;;;;;;;-1.06;57.85;101937.85;110437;1260;23598;-76
2023/02/10 01:35:11;;;;;;;38.80;29.20;;;;;;;-1.05;57.90;101933.27;110331;1262;22003;-75
2023/02/10 01:37:42;;;;;;;40.40;30.50;;;;;;;-1.05;57.90;101932.25;110437;1262;22020;-75
2023/02/10 01:40:12;;;;;;;38.50;30.30;;;;;;;-1.04;57.94;101930.23;110599;1256;21976;-74
2023/02/10 01:42:45;;;;;;;40.40;29.70;;;;;;;-1.03;57.90;101926.85;110917;1256;21922;-75
2023/02/10 01:45:38;;;;;;;39.70;29.10;;;;;;;-1.01;58.04;101923.83;111007;1255;21998;-76
2023/02/10 01:48:10;;;;;;;;;;;;;;;-1.04;58.11;101917.77;111018;1255;22807;-75
2023/02/10 01:50:51;;;;;;;40.60;28.50;;;;;;;-1.11;58.33;101911.52;111082;1256;21963;-75
2023/02/10 01:53:24;;;;;;;39.90;28.90;;;;;;;-1.15;58.21;101909.16;111146;1252;22657;-77
2023/02/10 01:55:57;;;;;;;40.50;29.00;;;;;;;-1.16;58.41;101910.17;111245;1254;23682;-75
2023/02/10 01:58:31;;;;;;;35.20;27.30;;;;;;;-1.15;58.35;101910.73;110851;1256;22578;-75
2023/02/10 02:01:01;;;;;;;36.40;27.90;;;;;;;-1.16;58.42;101911.02;111076;1255;22052;-75
2023/02/10 02:03:33;;;;;;;35.30;27.10;;;;;;;-1.17;58.45;101916.45;111124;1255;21940;-74
2023/02/10 02:06:05;;;;;;;35.90;25.50;;;;;;;-1.18;58.45;101915.39;111038;1255;22079;-74
2023/02/10 02:08:38;;;;;;;34.90;27.90;;;;;;;-1.18;58.45;101912.99;111107;1255;22752;-75
2023/02/10 02:11:21;;;;;;;31.40;25.10;;;;;;;-1.16;58.53;101912.58;111033;1255;21985;-74
2023/02/10 02:14:00;;;;;;;35.30;26.00;;;;;;;-1.14;58.56;101909.88;111120;1256;24451;-75
2023/02/10 02:16:58;;;;;;;38.90;28.30;;;;;;;-1.13;58.61;101911.29;111140;1255;21988;-75
2023/02/10 02:19:39;;;;;;;33.10;25.90;;;;;;;-1.11;58.64;101917.33;110937;1256;22088;-74
2023/02/10 02:22:38;;;;;;;34.70;27.40;;;;;;;-1.12;58.68;101922.62;111222;1255;22054;-75
2023/02/10 02:25:26;;;;;;;34.00;26.70;;;;;;;-1.11;58.71;101925.37;110240;1265;21970;-76
2023/02/10 02:28:37;;;;;;;32.80;25.70;;;;;;;-1.11;58.62;101926.57;110240;1265;21994;-75
2023/02/10 02:31:38;;;;;;;39.50;28.00;;;;;;;-1.13;58.73;101920.54;110189;1265;23575;-75
2023/02/10 02:34:17;;;;;;;35.50;27.90;;;;;;;-1.16;58.65;101912.23;110379;1265;21967;-75
2023/02/10 02:36:58;;;;;;;36.80;27.20;;;;;;;-1.18;58.59;101911.30;110269;1265;23868;-76
2023/02/10 02:39:28;;;;;;;34.10;27.10;;;;;;;-1.18;58.75;101908.20;110520;1264;23865;-76
2023/02/10 02:42:20;;;;;;;38.50;27.10;;;;;;;-1.18;58.67;101910.45;110247;1264;23802;-77
2023/02/10 02:45:10;;;;;;;35.10;26.00;;;;;;;-1.20;58.70;101920.10;109661;1270;23071;-76
2023/02/10 02:47:58;;;;;;;35.20;27.60;;;;;;;-1.20;58.67;101917.73;109115;1276;22012;-77
2023/02/10 02:50:47;;;;;;;32.80;26.10;;;;;;;-1.19;58.69;101911.41;109206;1276;21989;-79
2023/02/10 02:53:22;;;;;;;37.00;28.20;;;;;;;-1.18;58.68;101909.06;109087;1276;22063;-77
2023/02/10 02:56:18;;;;;;;36.30;26.70;;;;;;;-1.16;58.72;101905.38;109108;1276;22048;-76
2023/02/10 02:59:41;;;;;;;34.90;27.80;;;;;;;-1.17;58.66;101905.70;109050;1276;21995;-77
2023/02/10 03:02:19;;;;;;;35.50;27.90;;;;;;;-1.21;58.91;101902.50;108684;1274;22072;-77
2023/02/10 03:04:51;;;;;;;37.50;28.10;;;;;;;-1.20;58.92;101905.42;109253;1274;22156;-77
2023/02/10 03:07:26;;;;;;;35.50;27.80;;;;;;;-1.21;58.93;101908.97;109463;1271;23647;-77
2023/02/10 03:09:56;;;;;;;44.00;28.90;;;;;;;-1.22;58.96;101915.08;109589;1271;22212;-77
2023/02/10 03:12:31;;;;;;;33.40;26.60;;;;;;;-1.23;58.96;101924.45;109498;1270;21979;-76
2023/02/10 03:15:01;;;;;;;35.30;27.50;;;;;;;-1.25;58.90;101932.41;109186;1275;22021;-77
2023/02/10 03:17:30;;;;;;;36.10;27.00;;;;;;;-1.26;58.88;101935.77;109177;1275;22003;-76
2023/02/10 03:19:59;;;;;;;38.80;29.50;;;;;;;-1.27;58.80;101940.70;108807;1280;23188;-76
2023/02/10 03:22:35;;;;;;;34.50;27.00;;;;;;;-1.28;58.85;101943.90;108861;1280;23715;-77
2023/02/10 03:25:18;;;;;;;37.40;28.50;;;;;;;-1.29;58.96;101940.99;107479;1279;1838714;-77
2023/02/10 03:27:47;;;;;;;36.00;27.70;;;;;;;-1.28;58.93;101937.94;108851;1280;21822;-76
2023/02/10 03:30:17;;;;;;;39.10;27.80;;;;;;;-1.28;58.92;101935.88;108887;1280;22006;-77
2023/02/10 03:32:48;;;;;;;39.90;30.00;;;;;;;-1.28;59.15;101938.61;108795;1277;23786;-76
2023/02/10 03:35:18;;;;;;;37.20;29.80;;;;;;;-1.27;59.11;101932.33;109085;1277;23663;-76
2023/02/10 03:37:52;;;;;;;37.40;28.30;;;;;;;-1.28;59.16;101935.73;109324;1265;22093;-76
2023/02/10 03:40:22;;;;;;;38.90;29.50;;;;;;;-1.30;59.19;101934.79;110782;1255;21963;-76
2023/02/10 03:42:52;;;;;;;35.20;27.50;;;;;;;-1.30;59.16;101934.10;110599;1261;23621;-77
2023/02/10 03:45:21;;;;;;;32.90;27.50;;;;;;;-1.31;59.23;101933.23;110629;1261;21992;-76
2023/02/10 03:47:55;;;;;;;36.70;27.80;;;;;;;-1.31;59.32;101932.33;110772;1261;22258;-75
2023/02/10 03:50:29;;;;;;;36.90;27.60;;;;;;;-1.33;59.19;101937.57;110427;1261;23641;-76
2023/02/10 03:52:59;;;;;;;37.90;28.20;;;;;;;-1.35;59.21;101941.62;110713;1261;21974;-76
2023/02/10 03:55:30;;;;;;;37.10;28.40;;;;;;;-1.37;59.27;101942.58;110574;1261;21979;-74
2023/02/10 03:58:01;;;;;;;39.90;27.30;;;;;;;-1.37;59.27;101945.28;110718;1261;22171;-75
2023/02/10 04:00:34;;;;;;;38.30;29.40;;;;;;;-1.37;59.19;101944.95;110836;1256;21963;-75
2023/02/10 04:03:04;;;;;;;38.50;27.60;;;;;;;-1.39;59.15;101947.80;110550;1262;23023;-75
2023/02/10 04:05:34;;;;;;;33.00;27.00;;;;;;;-1.40;59.35;101947.07;110209;1267;22949;-76
2023/02/10 04:08:05;;;;;;;36.40;28.30;;;;;;;-1.38;59.26;101947.46;109723;1267;23774;-76
2023/02/10 04:10:39;;;;;;;38.00;27.40;;;;;;;-1.37;59.34;101946.98;109802;1268;22111;-74
2023/02/10 04:13:11;;;;;;;36.10;28.10;;;;;;;-1.34;59.49;101947.59;109761;1268;22041;-77
2023/02/10 04:15:40;;;;;;;38.10;28.30;;;;;;;-1.30;59.53;101952.21;109227;1272;23811;-75
2023/02/10 04:18:12;;;;;;;39.50;30.80;;;;;;;-1.24;59.68;101949.88;109202;1272;21991;-76
2023/02/10 04:20:45;;;;;;;57.70;47.10;;;;;;;-1.19;59.63;101948.02;109327;1267;22268;-78
2023/02/10 04:23:14;;;;;;;;;;;;;;;-1.17;59.48;101946.52;110119;1263;23844;-75
2023/02/10 04:25:43;;;;;;;35.00;27.50;;;;;;;-1.26;59.47;101944.52;110425;1262;22313;-75
2023/02/10 04:28:12;;;;;;;39.30;29.30;;;;;;;-1.29;59.42;101939.25;110245;1262;23036;-76
2023/02/10 04:30:42;;;;;;;37.00;29.20;;;;;;;-1.32;59.41;101938.11;110568;1253;23467;-76
2023/02/10 04:33:12;;;;;;;41.00;30.50;;;;;;;-1.35;59.39;101939.90;110616;1254;21993;-75
2023/02/10 04:35:46;;;;;;;37.90;30.00;;;;;;;-1.35;59.48;101953.23;111132;1256;21963;-75
2023/02/10 04:38:17;;;;;;;38.80;28.90;;;;;;;-1.33;59.58;101961.85;110961;1256;23059;-75
2023/02/10 04:40:47;;;;;;;38.70;30.30;;;;;;;-1.28;59.61;101965.59;111165;1254;22719;-75
2023/02/10 04:43:17;;;;;;;39.20;30.40;;;;;;;-1.23;59.58;101967.85;111068;1256;23710;-76
2023/02/10 04:45:47;;;;;;;38.40;28.80;;;;;;;-1.16;59.69;101967.24;110970;1256;21973;-75
2023/02/10 04:48:19;;;;;;;36.50;28.20;;;;;;;-1.07;59.76;101966.19;110954;1256;22993;-76
2023/02/10 04:50:52;;;;;;;36.20;29.30;;;;;;;-0.98;59.72;101957.27;110512;1262;21973;-75
2023/02/10 04:53:23;;;;;;;35.70;27.30;;;;;;;-0.91;59.66;101957.20;110706;1262;21983;-75
2023/02/10 04:55:52;;;;;;;34.80;28.20;;;;;;;-0.87;59.49;101957.48;110527;1262;21993;-75
2023/02/10 04:58:22;;;;;;;38.70;30.80;;;;;;;-0.86;59.37;101958.22;110548;1262;21957;-75
2023/02/10 05:00:55;;;;;;;33.70;28.30;;;;;;;-0.84;59.46;101955.90;110447;1262;23050;-75
2023/02/10 05:03:25;;;;;;;36.70;28.40;;;;;;;-0.80;59.50;101956.02;110425;1262;22911;-76
2023/02/10 05:05:54;;;;;;;35.90;26.40;;;;;;;-0.76;59.43;101959.58;110481;1262;22079;-76
2023/02/10 05:08:25;;;;;;;39.70;28.10;;;;;;;-0.72;59.46;101960.04;109733;1264;21984;-75
2023/02/10 05:10:55;;;;;;;34.60;27.20;;;;;;;-0.70;59.43;101963.71;109998;1263;23705;-76
2023/02/10 05:13:26;;;;;;;37.20;28.90;;;;;;;-0.66;59.39;101966.41;110166;1263;22012;-75
2023/02/10 05:15:58;;;;;;;31.90;25.70;;;;;;;-0.60;59.44;101971.73;110378;1263;21988;-75
2023/02/10 05:18:34;;;;;;;37.20;28.00;;;;;;;-0.53;59.43;101977.45;110403;1263;21962;-76
2023/02/10 05:21:04;;;;;;;39.30;29.00;;;;;;;-0.46;59.39;101981.96;110423;1262;22025;-77
2023/02/10 05:23:34;;;;;;;38.10;25.00;;;;;;;-0.39;59.27;101990.58;110642;1263;22019;-75
2023/02/10 05:26:03;;;;;;;34.60;26.00;;;;;;;-0.35;59.31;101992.08;110559;1262;23741;-75
2023/02/10 05:28:33;;;;;;;35.20;26.60;;;;;;;-0.33;59.26;101997.63;110752;1249;22043;-76
2023/02/10 05:31:08;;;;;;;32.50;24.80;;;;;;;-0.34;59.23;101997.42;110518;1262;22770;-76
2023/02/10 05:33:46;;;;;;;33.60;25.20;;;;;;;-0.36;59.26;102001.27;111005;1256;22896;-77
2023/02/10 05:36:19;;;;;;;36.00;27.90;;;;;;;-0.38;59.41;101998.64;111015;1256;23576;-77
2023/02/10 05:41:39;;;;;;;33.60;27.80;;;;;;;-0.48;59.68;101993.88;110726;1260;22970;-76
2023/02/10 05:44:10;;;;;;;36.90;28.70;;;;;;;-0.49;59.94;101994.70;110739;1260;23743;-76
2023/02/10 05:46:41;;;;;;;36.60;27.90;;;;;;;-0.48;60.14;101999.16;110752;1260;21980;-76
2023/02/10 05:49:12;;;;;;;39.90;30.40;;;;;;;-0.50;60.31;102003.05;110726;1260;22937;-77
2023/02/10 05:51:44;;;;;;;43.50;32.90;;;;;;;-0.49;60.64;102007.00;110739;1260;21973;-75
2023/02/10 05:54:42;;;;;;;40.60;30.10;;;;;;;-0.46;60.99;102004.19;110976;1260;21969;-75
2023/02/10 05:57:11;;;;;;;50.30;36.60;;;;;;;-0.46;61.18;102002.33;110193;1261;21972;-76
2023/02/10 05:59:41;;;;;;;39.20;31.00;;;;;;;-0.47;61.35;102006.57;110711;1261;21988;-76
2023/02/10 06:02:32;;;;;;;40.90;32.00;;;;;;;-0.47;61.56;102002.47;110601;1261;23048;-78
2023/02/10 06:05:03;;;;;;;37.60;30.90;;;;;;;-0.48;61.68;101996.60;110678;1258;21972;-78
2023/02/10 06:07:34;;;;;;;;;;;;;;;-0.46;61.91;102000.79;110556;1261;21964;-77
2023/02/10 06:10:16;;;;;;;45.80;31.90;;;;;;;-0.50;62.08;102002.18;110749;1260;21974;-77
2023/02/10 06:13:00;;;;;;;42.60;32.40;;;;;;;-0.49;62.25;102009.58;110672;1260;22856;-78
2023/02/10 06:15:38;;;;;;;42.10;33.10;;;;;;;-0.46;62.46;102010.02;110103;1265;21985;-75
2023/02/10 06:18:32;;;;;;;41.40;33.30;;;;;;;-0.42;62.69;102004.35;109458;1270;23068;-77
2023/02/10 06:21:10;;;;;;;46.30;32.40;;;;;;;-0.36;62.80;102006.42;109360;1266;22019;-77
2023/02/10 06:23:43;;;;;;;44.90;32.50;;;;;;;-0.32;62.86;102008.10;110128;1259;23272;-77
2023/02/10 06:26:18;;;;;;;42.80;33.90;;;;;;;-0.28;62.99;102011.65;110093;1265;21961;-78
2023/02/10 06:28:51;;;;;;;49.40;36.30;;;;;;;-0.27;63.13;102013.91;110380;1252;21972;-77
2023/02/10 06:31:25;;;;;;;43.40;36.50;;;;;;;-0.27;63.14;102011.69;110056;1265;21968;-77
2023/02/10 06:33:58;;;;;;;54.60;39.70;;;;;;;-0.24;63.30;102016.76;110603;1261;23067;-79
2023/02/10 06:36:27;;;;;;;56.80;41.10;;;;;;;-0.19;63.40;102023.92;110531;1255;22221;-76
2023/02/10 06:39:01;;;;;;;;;;;;;;;-0.16;63.44;102021.27;110907;1260;22145;-77
2023/02/10 06:41:32;;;;;;;60.80;42.40;;;;;;;-0.21;63.62;102022.13;110742;1260;21993;-77
2023/02/10 06:44:11;;;;;;;69.50;48.60;;;;;;;-0.19;63.75;102016.90;110710;1260;21990;-77
2023/02/10 06:46:50;;;;;;;68.40;49.10;;;;;;;-0.15;63.78;102017.90;110926;1260;22220;-78
2023/02/10 06:49:25;;;;;;;58.50;42.30;;;;;;;-0.08;63.83;102016.91;110567;1257;21992;-77
2023/02/10 06:51:55;;;;;;;51.50;40.20;;;;;;;-0.02;63.86;102017.47;110599;1256;23810;-77
2023/02/10 06:54:27;;;;;;;54.00;37.80;;;;;;;0.00;63.68;102019.06;110638;1261;23631;-78
2023/02/10 06:56:58;;;;;;;50.90;39.60;;;;;;;-0.01;63.67;102022.80;110839;1255;23743;-77
2023/02/10 06:59:28;;;;;;;49.60;37.30;;;;;;;-0.02;63.72;102027.55;111003;1255;22917;-78
2023/02/10 07:02:00;;;;;;;51.10;36.90;;;;;;;-0.02;63.80;102026.17;110687;1261;22009;-76
2023/02/10 07:04:31;;;;;;;53.90;36.60;;;;;;;-0.01;63.86;102030.14;110674;1261;21978;-76
2023/02/10 07:07:04;;;;;;;46.80;38.40;;;;;;;0.00;63.92;102034.11;110098;1265;22504;-76
2023/02/10 07:09:34;;;;;;;52.60;39.60;;;;;;;-0.00;63.98;102032.23;110190;1267;21979;-74
2023/02/10 07:12:04;;;;;;;48.00;37.00;;;;;;;0.04;64.11;102030.66;109866;1267;21948;-77
2023/02/10 07:14:52;;;;;;;49.10;36.20;;;;;;;0.13;64.24;102030.10;110284;1267;22001;-79
2023/02/10 07:17:33;;;;;;;46.80;37.20;;;;;;;0.17;64.19;102033.80;109246;1272;23609;-77
2023/02/10 07:20:05;;;;;;;44.20;34.00;;;;;;;0.22;64.14;102033.42;109518;1267;21962;-80
2023/02/10 07:22:35;;;;;;;48.80;38.90;;;;;;;0.28;64.27;102036.04;109734;1267;23748;-76
2023/02/10 07:25:05;;;;;;;50.50;38.00;;;;;;;0.35;64.23;102043.45;110223;1260;22985;-75
2023/02/10 07:27:34;;;;;;;53.90;38.30;;;;;;;0.43;64.28;102054.48;110621;1261;22040;-73
2023/02/10 07:30:04;;;;;;;43.50;35.00;;;;;;;0.53;64.45;102052.73;110268;1256;22116;-72
2023/02/10 07:32:33;;;;;;;48.40;35.70;;;;;;;0.63;64.35;102052.88;109954;1266;22006;-73
2023/02/10 07:35:03;;;;;;;49.70;35.60;;;;;;;0.72;64.15;102051.44;109523;1266;21993;-72
2023/02/10 07:37:33;;;;;;;54.30;37.00;;;;;;;0.79;64.16;102052.84;110247;1265;23758;-72
2023/02/10 07:40:14;;;;;;;54.60;36.90;;;;;;;0.88;64.18;102054.30;110156;1251;23103;-70
2023/02/10 07:42:45;;;;;;;47.60;37.50;;;;;;;0.98;64.23;102049.27;110136;1265;23810;-71
2023/02/10 07:45:27;;;;;;;47.70;34.90;;;;;;;1.09;64.38;102055.58;110011;1259;23028;-76
2023/02/10 07:48:09;;;;;;;42.40;34.10;;;;;;;1.21;64.37;102051.29;110181;1260;23808;-72
2023/02/10 07:50:40;;;;;;;43.60;35.30;;;;;;;1.38;64.56;102050.72;110766;1260;22733;-72
2023/02/10 07:53:13;;;;;;;43.40;34.70;;;;;;;1.55;64.26;102040.38;110648;1255;24882;-73
2023/02/10 07:55:45;;;;;;;46.70;35.80;;;;;;;1.70;64.13;102043.52;111161;1254;23296;-72
2023/02/10 07:58:15;;;;;;;45.00;35.10;;;;;;;1.90;64.01;102047.62;111197;1254;23718;-72
2023/02/10 08:00:45;;;;;;;47.50;34.70;;;;;;;2.10;63.68;102048.60;111203;1251;23579;-76
2023/02/10 08:03:15;;;;;;;50.30;37.80;;;;;;;2.29;63.40;102053.88;110908;1254;24450;-73
2023/02/10 08:05:47;;;;;;;49.50;35.60;;;;;;;2.42;62.49;102055.38;111076;1254;21970;-74
2023/02/10 08:08:20;;;;;;;41.60;33.10;;;;;;;2.46;61.77;102058.22;111152;1255;22755;-77
2023/02/10 08:10:50;;;;;;;48.10;35.80;;;;;;;2.44;61.19;102061.98;111094;1255;21990;-78
2023/02/10 08:13:27;;;;;;;44.80;34.10;;;;;;;2.43;60.91;102060.05;111083;1255;22043;-78
2023/02/10 08:16:14;;;;;;;43.80;33.20;;;;;;;2.39;60.53;102058.94;111143;1255;21964;-78
2023/02/10 08:18:47;;;;;;;40.90;31.40;;;;;;;2.35;60.31;102055.23;110903;1255;21979;-78
2023/02/10 08:21:17;;;;;;;46.50;36.00;;;;;;;2.32;60.12;102058.95;110800;1255;23701;-77
2023/02/10 08:23:54;;;;;;;58.70;41.40;;;;;;;2.30;59.99;102059.23;111183;1255;22752;-77
2023/02/10 08:26:27;;;;;;;47.80;35.80;;;;;;;2.30;59.99;102066.95;110943;1255;22725;-77
2023/02/10 08:28:59;;;;;;;44.40;36.70;;;;;;;2.28;59.75;102067.77;110310;1260;21996;-78
2023/02/10 08:31:30;;;;;;;40.30;32.70;;;;;;;2.24;59.56;102069.91;110741;1260;23596;-78
2023/02/10 08:34:04;;;;;;;45.50;34.40;;;;;;;2.22;59.62;102079.83;109435;1268;21977;-78
2023/02/10 08:36:34;;;;;;;42.00;33.00;;;;;;;2.23;59.63;102076.58;109597;1268;22006;-78
2023/02/10 08:39:04;;;;;;;41.20;34.30;;;;;;;2.26;59.73;102074.60;109591;1268;22368;-78
2023/02/10 08:41:37;;;;;;;44.40;35.80;;;;;;;2.28;59.78;102066.74;109809;1268;23602;-78
2023/02/10 08:44:25;;;;;;;51.50;36.80;;;;;;;2.27;59.69;102063.79;110028;1268;22051;-78
2023/02/10 08:46:57;;;;;;;48.50;37.70;;;;;;;2.25;59.57;102058.59;109894;1268;22840;-78
2023/02/10 08:49:36;;;;;;;47.70;38.40;;;;;;;2.21;59.37;102059.36;109737;1269;22955;-79
2023/02/10 08:52:07;;;;;;;51.70;37.70;;;;;;;2.15;59.51;102060.07;109793;1263;23815;-80
2023/02/10 08:54:37;;;;;;;55.00;40.40;;;;;;;2.13;59.65;102060.38;111012;1256;22389;-78
2023/02/10 08:57:07;;;;;;;49.90;37.80;;;;;;;2.09;59.51;102058.55;110846;1257;21965;-76
2023/02/10 08:59:43;;;;;;;46.40;37.90;;;;;;;2.06;59.60;102058.81;110875;1256;21935;-77
2023/02/10 09:02:20;;;;;;;42.20;34.90;;;;;;;2.07;59.79;102064.00;110861;1256;21965;-82
2023/02/10 09:04:55;;;;;;;49.80;35.20;;;;;;;2.07;59.65;102068.65;110848;1256;21987;-76
2023/02/10 09:07:54;;;;;;;43.90;33.20;;;;;;;2.06;59.69;102077.19;111076;1255;21966;-76
2023/02/10 09:10:24;;;;;;;48.60;39.10;;;;;;;2.07;59.98;102081.52;111240;1255;21961;-76
2023/02/10 09:12:54;;;;;;;46.60;36.90;;;;;;;2.11;60.11;102081.11;111059;1255;22933;-76
2023/02/10 09:15:25;;;;;;;43.60;35.00;;;;;;;2.17;60.16;102083.14;111168;1255;21963;-75
2023/02/10 09:18:00;;;;;;;52.50;38.10;;;;;;;2.23;60.26;102084.14;110942;1254;23618;-74
2023/02/10 09:20:33;;;;;;;50.20;38.20;;;;;;;2.28;60.22;102084.45;111171;1255;21984;-74
2023/02/10 09:23:04;;;;;;;54.60;39.10;;;;;;;2.28;60.08;102084.96;111209;1255;22150;-75
2023/02/10 09:25:35;;;;;;;48.10;40.00;;;;;;;2.30;60.11;102086.04;110827;1260;22040;-75
2023/02/10 09:28:08;;;;;;;54.50;40.50;;;;;;;2.35;60.24;102093.02;110636;1260;23608;-75
2023/02/10 09:30:42;;;;;;;50.70;38.50;;;;;;;2.40;60.26;102095.72;110795;1260;21972;-74
2023/02/10 09:33:15;;;;;;;47.80;35.80;;;;;;;2.45;60.15;102098.23;110824;1260;21989;-76
2023/02/10 09:35:46;;;;;;;41.20;33.60;;;;;;;2.49;60.18;102100.42;110774;1260;22255;-76
2023/02/10 09:38:17;;;;;;;42.90;33.20;;;;;;;2.56;60.34;102103.31;110699;1260;22283;-76
2023/02/10 09:41:17;;;;;;;50.40;36.50;;;;;;;2.64;60.34;102106.42;110802;1260;21997;-76
2023/02/10 09:44:06;;;;;;;44.50;34.70;;;;;;;2.72;60.26;102107.62;111118;1255;21928;-75
2023/02/10 09:47:32;;;;;;;49.90;35.00;;;;;;;2.79;60.24;102096.09;111327;1255;23041;-74
2023/02/10 09:50:58;;;;;;;48.70;36.90;;;;;;;2.83;60.14;102081.91;111102;1255;21998;-76
2023/02/10 09:53:31;;;;;;;47.40;37.30;;;;;;;2.86;60.11;102076.98;111222;1251;22925;-77
2023/02/10 09:56:17;;;;;;;46.70;35.30;;;;;;;2.89;60.00;102077.73;111119;1255;22042;-78
2023/02/10 09:58:54;;;;;;;43.50;34.30;;;;;;;2.91;59.93;102084.66;111077;1255;21983;-77
2023/02/10 10:01:59;;;;;;;48.00;35.10;;;;;;;2.93;59.85;102093.65;111119;1255;21958;-77
2023/02/10 10:04:31;;;;;;;49.50;33.70;;;;;;;2.95;59.81;102087.33;111043;1254;21967;-77
2023/02/10 10:07:30;;;;;;;40.70;32.30;;;;;;;3.02;59.82;102085.58;110724;1259;23111;-76
2023/02/10 10:10:20;;;;;;;43.90;32.10;;;;;;;3.10;59.85;102087.48;110859;1260;22524;-78
2023/02/10 10:12:57;;;;;;;46.40;33.30;;;;;;;3.22;59.80;102086.50;110544;1259;22028;-77
2023/02/10 10:15:42;;;;;;;42.80;33.70;;;;;;;3.32;59.75;102092.22;110739;1260;21975;-77
2023/02/10 10:18:45;;;;;;;43.20;33.00;;;;;;;3.53;60.13;102091.94;110799;1260;24305;-77
2023/02/10 10:21:31;;;;;;;48.60;36.50;;;;;;;3.89;60.19;102091.04;110527;1260;22439;-77
2023/02/10 10:24:27;;;;;;;42.20;34.10;;;;;;;4.17;59.76;102087.90;110647;1257;21997;-76
2023/02/10 10:27:28;;;;;;;44.30;36.50;;;;;;;4.38;59.13;102092.55;110897;1248;21967;-79
2023/02/10 10:30:45;;;;;;;47.10;36.60;;;;;;;4.54;58.64;102085.89;110692;1260;23019;-79
2023/02/10 10:34:12;;;;;;;40.60;34.80;;;;;;;4.67;58.39;102079.35;110071;1267;22609;-77
2023/02/10 10:36:55;;;;;;;46.60;35.60;;;;;;;4.88;58.21;102076.70;109985;1254;23502;-76
2023/02/10 10:39:44;;;;;;;42.90;35.50;;;;;;;5.06;57.68;102077.45;109934;1267;22010;-78
2023/02/10 10:42:34;;;;;;;49.50;34.90;;;;;;;5.16;57.14;102085.69;109445;1271;23069;-77
2023/02/10 10:45:12;;;;;;;44.20;34.00;;;;;;;5.18;56.67;102082.27;109604;1264;23057;-78
2023/02/10 10:48:26;;;;;;;44.00;36.20;;;;;;;5.14;56.32;102074.29;109455;1271;21990;-79
2023/02/10 10:51:11;;;;;;;57.90;41.50;;;;;;;5.05;56.06;102056.39;109708;1272;22055;-78
2023/02/10 10:53:57;;;;;;;47.80;37.20;;;;;;;4.88;55.85;102061.52;109391;1273;23726;-78
2023/02/10 10:57:04;;;;;;;43.90;38.20;;;;;;;4.70;55.90;102070.94;109443;1273;21979;-80
2023/02/10 10:59:49;;;;;;;63.40;48.30;;;;;;;4.61;56.24;102074.78;109470;1268;23081;-82
2023/02/10 11:02:24;;;;;;;60.20;51.80;;;;;;;4.56;56.21;102074.54;110052;1267;22011;-82
2023/02/10 11:05:28;;;;;;;48.70;39.80;;;;;;;4.49;56.34;102072.20;110487;1260;21972;-81
2023/02/10 11:08:05;;;;;;;55.70;43.30;;;;;;;4.34;56.46;102071.09;109532;1274;22579;-82
2023/02/10 11:10:59;;;;;;;51.90;39.80;;;;;;;4.25;56.57;102067.69;109634;1268;23649;-81
2023/02/10 11:13:32;;;;;;;51.80;39.30;;;;;;;4.20;56.86;102064.16;109773;1268;22549;-81
2023/02/10 11:16:16;;;;;;;53.10;39.10;;;;;;;4.17;56.93;102063.08;110037;1268;23758;-81
2023/02/10 11:23:17;;;;;;;48.10;36.70;;;;;;;3.96;57.26;102079.64;109044;1281;23724;-82
2023/02/10 11:26:33;;;;;;;50.70;39.60;;;;;;;3.94;57.49;102084.93;109089;1284;22019;-82
2023/02/10 11:29:36;;;;;;;56.00;40.00;;;;;;;3.93;57.65;102084.39;108540;1285;22136;-82
2023/02/10 11:32:38;;;;;;;49.30;39.00;;;;;;;3.88;57.56;102085.86;108801;1282;22024;-82
2023/02/10 11:35:19;;;;;;;49.20;40.10;;;;;;;3.85;57.98;102082.37;108915;1282;22023;-82
2023/02/10 11:38:22;;;;;;;50.90;40.20;;;;;;;3.86;58.21;102073.25;108788;1280;22032;-81
2023/02/10 11:40:56;;;;;;;50.50;39.00;;;;;;;3.89;58.29;102072.77;108870;1277;23037;-81
2023/02/10 11:43:35;;;;;;;48.10;38.20;;;;;;;3.98;58.79;102078.98;108960;1278;22932;-80
2023/02/10 11:46:33;;;;;;;44.80;35.70;;;;;;;4.07;58.71;102078.78;109904;1269;21998;-85
2023/02/10 11:49:18;;;;;;;53.50;38.30;;;;;;;4.09;58.65;102077.78;109956;1268;22016;-83
2023/02/10 11:52:01;;;;;;;48.80;39.00;;;;;;;4.14;58.76;102086.30;110035;1268;23835;-82
2023/02/10 11:54:35;;;;;;;51.00;39.60;;;;;;;4.24;58.85;102084.73;109893;1268;22036;-78
2023/02/10 12:00:48;;;;;;;44.50;34.90;;;;;;;4.30;58.61;102095.52;110877;1260;23696;-88
2023/02/10 12:03:50;;;;;;;47.60;35.70;;;;;;;4.23;58.39;102105.75;111398;1256;21950;-89
2023/02/10 12:07:24;;;;;;;44.80;35.40;;;;;;;4.19;58.46;102111.02;111204;1260;22391;-85